sensor_id;sensor_type;location;lat;lon;timestamp;temperature;humidity
65478;SHT31;53678;39.642;22.430;2023-05-19T00:01:08;16.63;84.83
65478;SHT31;53678;39.642;22.430;2023-05-19T00:03:35;16.94;83.36
65478;SHT31;53678;39.642;22.430;2023-05-19T00:06:06;16.88;82.06
65478;SHT31;53678;39.642;22.430;2023-05-19T00:08:36;16.77;83.00
65478;SHT31;53678;39.642;22.430;2023-05-19T00:11:03;16.71;83.43
65478;SHT31;53678;39.642;22.430;2023-05-19T00:13:29;16.67;84.04
65478;SHT31;53678;39.642;22.430;2023-05-19T00:15:55;16.66;83.78
65478;SHT31;53678;39.642;22.430;2023-05-19T00:18:21;16.57;84.52
65478;SHT31;53678;39.642;22.430;2023-05-19T00:20:47;16.84;83.96
65478;SHT31;53678;39.642;22.430;2023-05-19T00:23:13;16.75;83.67
65478;SHT31;53678;39.642;22.430;2023-05-19T00:25:39;16.87;83.21
65478;SHT31;53678;39.642;22.430;2023-05-19T00:28:05;16.91;83.31
65478;SHT31;53678;39.642;22.430;2023-05-19T00:30:31;17.05;82.27
65478;SHT31;53678;39.642;22.430;2023-05-19T00:32:57;16.95;83.28
65478;SHT31;53678;39.642;22.430;2023-05-19T00:35:23;16.94;83.50
65478;SHT31;53678;39.642;22.430;2023-05-19T00:37:49;16.87;83.50
65478;SHT31;53678;39.642;22.430;2023-05-19T00:40:14;16.88;83.35
65478;SHT31;53678;39.642;22.430;2023-05-19T00:42:42;16.89;83.51
65478;SHT31;53678;39.642;22.430;2023-05-19T00:45:08;16.88;83.48
65478;SHT31;53678;39.642;22.430;2023-05-19T00:47:33;16.78;84.03
65478;SHT31;53678;39.642;22.430;2023-05-19T00:49:59;16.83;84.34
65478;SHT31;53678;39.642;22.430;2023-05-19T00:52:25;16.89;84.20
65478;SHT31;53678;39.642;22.430;2023-05-19T00:54:52;16.81;83.96
65478;SHT31;53678;39.642;22.430;2023-05-19T00:57:19;16.74;84.60
65478;SHT31;53678;39.642;22.430;2023-05-19T00:59:47;16.75;85.00
65478;SHT31;53678;39.642;22.430;2023-05-19T01:02:13;16.73;84.49
65478;SHT31;53678;39.642;22.430;2023-05-19T01:04:39;16.53;84.22
65478;SHT31;53678;39.642;22.430;2023-05-19T01:07:06;16.67;84.16
65478;SHT31;53678;39.642;22.430;2023-05-19T01:09:32;16.64;84.52
65478;SHT31;53678;39.642;22.430;2023-05-19T01:12:00;16.50;84.90
65478;SHT31;53678;39.642;22.430;2023-05-19T01:14:27;16.66;84.41
65478;SHT31;53678;39.642;22.430;2023-05-19T01:17:00;16.70;84.33
65478;SHT31;53678;39.642;22.430;2023-05-19T01:22:39;16.73;84.32
65478;SHT31;53678;39.642;22.430;2023-05-19T01:25:32;16.81;84.71
65478;SHT31;53678;39.642;22.430;2023-05-19T01:30:52;16.89;84.18
65478;SHT31;53678;39.642;22.430;2023-05-19T01:33:20;16.92;84.16
65478;SHT31;53678;39.642;22.430;2023-05-19T01:35:48;16.96;84.12
65478;SHT31;53678;39.642;22.430;2023-05-19T01:38:16;16.95;83.79
65478;SHT31;53678;39.642;22.430;2023-05-19T01:40:44;16.96;84.07
65478;SHT31;53678;39.642;22.430;2023-05-19T01:43:14;16.92;84.11
65478;SHT31;53678;39.642;22.430;2023-05-19T01:45:40;16.94;84.43
65478;SHT31;53678;39.642;22.430;2023-05-19T01:48:07;16.78;84.62
65478;SHT31;53678;39.642;22.430;2023-05-19T01:50:33;16.74;84.86
65478;SHT31;53678;39.642;22.430;2023-05-19T01:52:59;16.67;85.29
65478;SHT31;53678;39.642;22.430;2023-05-19T01:55:26;16.60;86.04
65478;SHT31;53678;39.642;22.430;2023-05-19T01:58:14;16.63;85.86
65478;SHT31;53678;39.642;22.430;2023-05-19T02:01:02;16.66;86.17
65478;SHT31;53678;39.642;22.430;2023-05-19T02:12:19;16.66;85.90
65478;SHT31;53678;39.642;22.430;2023-05-19T02:17:29;16.59;87.08
65478;SHT31;53678;39.642;22.430;2023-05-19T02:20:01;16.60;87.25
65478;SHT31;53678;39.642;22.430;2023-05-19T02:22:30;16.67;87.16
65478;SHT31;53678;39.642;22.430;2023-05-19T02:24:55;16.74;87.00
65478;SHT31;53678;39.642;22.430;2023-05-19T02:27:22;16.80;86.74
65478;SHT31;53678;39.642;22.430;2023-05-19T02:29:48;16.80;86.38
65478;SHT31;53678;39.642;22.430;2023-05-19T02:32:14;16.88;86.30
65478;SHT31;53678;39.642;22.430;2023-05-19T02:34:40;16.84;85.50
65478;SHT31;53678;39.642;22.430;2023-05-19T02:37:13;16.91;84.99
65478;SHT31;53678;39.642;22.430;2023-05-19T02:39:43;16.78;84.71
65478;SHT31;53678;39.642;22.430;2023-05-19T02:42:09;16.68;85.33
65478;SHT31;53678;39.642;22.430;2023-05-19T02:44:35;16.64;86.14
65478;SHT31;53678;39.642;22.430;2023-05-19T02:47:01;16.70;86.11
65478;SHT31;53678;39.642;22.430;2023-05-19T02:49:27;16.73;85.75
65478;SHT31;53678;39.642;22.430;2023-05-19T02:51:55;16.75;85.84
65478;SHT31;53678;39.642;22.430;2023-05-19T02:54:22;16.68;86.00
65478;SHT31;53678;39.642;22.430;2023-05-19T02:56:47;16.64;86.25
65478;SHT31;53678;39.642;22.430;2023-05-19T02:59:13;16.68;86.01
65478;SHT31;53678;39.642;22.430;2023-05-19T03:01:38;16.77;86.01
65478;SHT31;53678;39.642;22.430;2023-05-19T03:04:04;16.78;85.82
65478;SHT31;53678;39.642;22.430;2023-05-19T03:06:30;16.81;85.26
65478;SHT31;53678;39.642;22.430;2023-05-19T03:08:57;16.84;85.49
65478;SHT31;53678;39.642;22.430;2023-05-19T03:11:23;16.94;84.89
65478;SHT31;53678;39.642;22.430;2023-05-19T03:13:49;17.02;84.54
65478;SHT31;53678;39.642;22.430;2023-05-19T03:16:14;17.10;84.60
65478;SHT31;53678;39.642;22.430;2023-05-19T03:18:40;17.18;84.30
65478;SHT31;53678;39.642;22.430;2023-05-19T03:21:06;17.19;84.13
65478;SHT31;53678;39.642;22.430;2023-05-19T03:23:32;17.18;84.06
65478;SHT31;53678;39.642;22.430;2023-05-19T03:25:57;17.12;84.36
65478;SHT31;53678;39.642;22.430;2023-05-19T03:28:23;17.14;84.18
65478;SHT31;53678;39.642;22.430;2023-05-19T03:30:51;17.18;84.33
65478;SHT31;53678;39.642;22.430;2023-05-19T03:33:20;17.26;83.90
65478;SHT31;53678;39.642;22.430;2023-05-19T03:35:48;17.36;83.57
65478;SHT31;53678;39.642;22.430;2023-05-19T03:38:15;17.46;83.14
65478;SHT31;53678;39.642;22.430;2023-05-19T03:40:48;17.52;82.67
65478;SHT31;53678;39.642;22.430;2023-05-19T03:43:14;17.53;82.36
65478;SHT31;53678;39.642;22.430;2023-05-19T03:45:45;17.59;82.55
65478;SHT31;53678;39.642;22.430;2023-05-19T03:48:32;17.70;81.85
65478;SHT31;53678;39.642;22.430;2023-05-19T03:51:30;17.84;81.82
65478;SHT31;53678;39.642;22.430;2023-05-19T03:54:04;17.69;82.45
65478;SHT31;53678;39.642;22.430;2023-05-19T03:56:30;17.26;84.69
65478;SHT31;53678;39.642;22.430;2023-05-19T03:58:57;17.40;84.44
65478;SHT31;53678;39.642;22.430;2023-05-19T04:01:23;17.14;85.11
65478;SHT31;53678;39.642;22.430;2023-05-19T04:03:49;17.19;85.25
65478;SHT31;53678;39.642;22.430;2023-05-19T04:06:15;17.31;85.22
65478;SHT31;53678;39.642;22.430;2023-05-19T04:08:41;17.40;84.73
65478;SHT31;53678;39.642;22.430;2023-05-19T04:11:08;17.57;83.99
65478;SHT31;53678;39.642;22.430;2023-05-19T04:13:34;17.67;83.81
65478;SHT31;53678;39.642;22.430;2023-05-19T04:16:00;18.17;82.48
65478;SHT31;53678;39.642;22.430;2023-05-19T04:18:26;18.47;80.85
65478;SHT31;53678;39.642;22.430;2023-05-19T04:20:52;19.58;77.08
65478;SHT31;53678;39.642;22.430;2023-05-19T04:23:18;19.35;78.42
65478;SHT31;53678;39.642;22.430;2023-05-19T04:25:44;19.18;78.26
65478;SHT31;53678;39.642;22.430;2023-05-19T04:28:10;19.16;78.36
65478;SHT31;53678;39.642;22.430;2023-05-19T04:30:35;19.06;77.92
65478;SHT31;53678;39.642;22.430;2023-05-19T04:33:02;19.26;77.52
65478;SHT31;53678;39.642;22.430;2023-05-19T04:35:29;19.30;77.26
65478;SHT31;53678;39.642;22.430;2023-05-19T04:37:57;19.54;76.60
65478;SHT31;53678;39.642;22.430;2023-05-19T04:40:27;20.78;73.05
65478;SHT31;53678;39.642;22.430;2023-05-19T04:42:56;21.74;70.35
65478;SHT31;53678;39.642;22.430;2023-05-19T04:45:22;22.89;67.43
65478;SHT31;53678;39.642;22.430;2023-05-19T04:47:52;23.20;65.52
65478;SHT31;53678;39.642;22.430;2023-05-19T04:50:23;22.39;67.88
65478;SHT31;53678;39.642;22.430;2023-05-19T04:52:49;22.01;68.00
65478;SHT31;53678;39.642;22.430;2023-05-19T04:55:16;21.18;70.05
65478;SHT31;53678;39.642;22.430;2023-05-19T04:57:43;20.74;71.14
65478;SHT31;53678;39.642;22.430;2023-05-19T05:00:10;20.27;70.70
65478;SHT31;53678;39.642;22.430;2023-05-19T05:02:51;19.64;74.21
65478;SHT31;53678;39.642;22.430;2023-05-19T05:05:20;19.67;74.12
65478;SHT31;53678;39.642;22.430;2023-05-19T05:07:46;19.89;73.04
65478;SHT31;53678;39.642;22.430;2023-05-19T05:10:13;19.92;72.66
65478;SHT31;53678;39.642;22.430;2023-05-19T05:12:40;20.20;71.47
65478;SHT31;53678;39.642;22.430;2023-05-19T05:15:06;21.22;67.75
65478;SHT31;53678;39.642;22.430;2023-05-19T05:17:33;23.23;63.63
65478;SHT31;53678;39.642;22.430;2023-05-19T05:20:01;24.44;59.18
65478;SHT31;53678;39.642;22.430;2023-05-19T05:22:30;25.36;57.06
65478;SHT31;53678;39.642;22.430;2023-05-19T05:24:56;26.04;55.81
65478;SHT31;53678;39.642;22.430;2023-05-19T05:27:22;26.07;56.35
65478;SHT31;53678;39.642;22.430;2023-05-19T05:29:49;26.17;56.73
65478;SHT31;53678;39.642;22.430;2023-05-19T05:32:15;25.87;56.53
65478;SHT31;53678;39.642;22.430;2023-05-19T05:34:42;25.69;56.01
65478;SHT31;53678;39.642;22.430;2023-05-19T05:37:08;25.18;57.37
65478;SHT31;53678;39.642;22.430;2023-05-19T05:39:34;24.72;59.64
65478;SHT31;53678;39.642;22.430;2023-05-19T05:42:00;23.92;61.14
65478;SHT31;53678;39.642;22.430;2023-05-19T05:44:26;23.45;63.48
65478;SHT31;53678;39.642;22.430;2023-05-19T05:46:52;23.55;63.82
65478;SHT31;53678;39.642;22.430;2023-05-19T05:49:19;23.62;61.86
65478;SHT31;53678;39.642;22.430;2023-05-19T05:51:46;23.54;61.57
65478;SHT31;53678;39.642;22.430;2023-05-19T05:54:15;23.55;62.76
65478;SHT31;53678;39.642;22.430;2023-05-19T05:56:45;23.85;62.81
65478;SHT31;53678;39.642;22.430;2023-05-19T05:59:12;24.01;61.82
65478;SHT31;53678;39.642;22.430;2023-05-19T06:01:37;23.69;60.25
65478;SHT31;53678;39.642;22.430;2023-05-19T06:04:06;22.95;63.34
65478;SHT31;53678;39.642;22.430;2023-05-19T06:06:32;23.18;63.97
65478;SHT31;53678;39.642;22.430;2023-05-19T06:09:00;23.64;61.59
65478;SHT31;53678;39.642;22.430;2023-05-19T06:11:27;23.93;59.64
65478;SHT31;53678;39.642;22.430;2023-05-19T06:13:55;24.01;59.05
65478;SHT31;53678;39.642;22.430;2023-05-19T06:16:40;24.34;58.39
65478;SHT31;53678;39.642;22.430;2023-05-19T06:19:06;24.63;57.78
65478;SHT31;53678;39.642;22.430;2023-05-19T06:21:32;24.70;58.68
65478;SHT31;53678;39.642;22.430;2023-05-19T06:23:58;24.77;58.85
65478;SHT31;53678;39.642;22.430;2023-05-19T06:26:25;24.72;59.34
65478;SHT31;53678;39.642;22.430;2023-05-19T06:28:51;24.98;58.54
65478;SHT31;53678;39.642;22.430;2023-05-19T06:31:17;24.92;58.30
65478;SHT31;53678;39.642;22.430;2023-05-19T06:33:48;24.95;58.55
65478;SHT31;53678;39.642;22.430;2023-05-19T06:36:15;24.82;58.27
65478;SHT31;53678;39.642;22.430;2023-05-19T06:38:42;23.69;57.95
65478;SHT31;53678;39.642;22.430;2023-05-19T06:41:08;23.57;59.62
65478;SHT31;53678;39.642;22.430;2023-05-19T06:43:34;23.20;60.17
65478;SHT31;53678;39.642;22.430;2023-05-19T06:46:03;23.59;58.81
65478;SHT31;53678;39.642;22.430;2023-05-19T06:48:32;24.30;58.41
65478;SHT31;53678;39.642;22.430;2023-05-19T06:50:58;24.84;57.34
65478;SHT31;53678;39.642;22.430;2023-05-19T06:53:25;25.12;56.15
65478;SHT31;53678;39.642;22.430;2023-05-19T06:55:52;24.30;56.31
65478;SHT31;53678;39.642;22.430;2023-05-19T06:58:21;24.02;56.99
65478;SHT31;53678;39.642;22.430;2023-05-19T07:00:47;23.99;56.62
65478;SHT31;53678;39.642;22.430;2023-05-19T07:03:15;23.89;57.22
65478;SHT31;53678;39.642;22.430;2023-05-19T07:05:42;24.02;56.70
65478;SHT31;53678;39.642;22.430;2023-05-19T07:08:07;23.28;58.08
65478;SHT31;53678;39.642;22.430;2023-05-19T07:10:34;23.07;58.16
65478;SHT31;53678;39.642;22.430;2023-05-19T07:13:02;23.78;57.10
65478;SHT31;53678;39.642;22.430;2023-05-19T07:15:31;24.10;56.67
65478;SHT31;53678;39.642;22.430;2023-05-19T07:17:58;24.22;56.04
65478;SHT31;53678;39.642;22.430;2023-05-19T07:20:24;23.81;56.52
65478;SHT31;53678;39.642;22.430;2023-05-19T07:22:50;23.65;56.72
65478;SHT31;53678;39.642;22.430;2023-05-19T07:25:16;24.33;56.52
65478;SHT31;53678;39.642;22.430;2023-05-19T07:27:45;24.60;55.82
65478;SHT31;53678;39.642;22.430;2023-05-19T07:30:11;24.60;56.18
65478;SHT31;53678;39.642;22.430;2023-05-19T07:32:38;24.06;57.13
65478;SHT31;53678;39.642;22.430;2023-05-19T07:35:05;24.63;56.03
65478;SHT31;53678;39.642;22.430;2023-05-19T07:37:31;24.29;56.28
65478;SHT31;53678;39.642;22.430;2023-05-19T07:39:56;24.85;55.33
65478;SHT31;53678;39.642;22.430;2023-05-19T07:42:24;24.03;56.74
65478;SHT31;53678;39.642;22.430;2023-05-19T07:44:49;24.05;56.50
65478;SHT31;53678;39.642;22.430;2023-05-19T07:47:15;24.41;55.74
65478;SHT31;53678;39.642;22.430;2023-05-19T07:49:41;25.05;54.68
65478;SHT31;53678;39.642;22.430;2023-05-19T07:52:07;25.35;54.35
65478;SHT31;53678;39.642;22.430;2023-05-19T07:54:32;25.59;53.01
65478;SHT31;53678;39.642;22.430;2023-05-19T07:56:58;24.26;55.97
65478;SHT31;53678;39.642;22.430;2023-05-19T07:59:24;23.45;57.04
65478;SHT31;53678;39.642;22.430;2023-05-19T08:01:49;22.79;58.38
65478;SHT31;53678;39.642;22.430;2023-05-19T08:04:15;22.11;60.79
65478;SHT31;53678;39.642;22.430;2023-05-19T08:06:41;22.45;60.03
65478;SHT31;53678;39.642;22.430;2023-05-19T08:09:08;23.03;59.39
65478;SHT31;53678;39.642;22.430;2023-05-19T08:11:34;23.27;58.49
65478;SHT31;53678;39.642;22.430;2023-05-19T08:14:01;23.76;56.63
65478;SHT31;53678;39.642;22.430;2023-05-19T08:16:27;22.59;58.72
65478;SHT31;53678;39.642;22.430;2023-05-19T08:18:52;23.40;56.83
65478;SHT31;53678;39.642;22.430;2023-05-19T08:21:20;24.29;55.52
65478;SHT31;53678;39.642;22.430;2023-05-19T08:23:46;23.27;56.18
65478;SHT31;53678;39.642;22.430;2023-05-19T08:26:12;22.85;57.06
65478;SHT31;53678;39.642;22.430;2023-05-19T08:28:37;22.58;57.15
65478;SHT31;53678;39.642;22.430;2023-05-19T08:31:03;23.57;55.24
65478;SHT31;53678;39.642;22.430;2023-05-19T08:33:29;24.47;53.86
65478;SHT31;53678;39.642;22.430;2023-05-19T08:35:55;25.21;52.38
65478;SHT31;53678;39.642;22.430;2023-05-19T08:38:23;25.73;51.41
65478;SHT31;53678;39.642;22.430;2023-05-19T08:40:49;25.36;51.70
65478;SHT31;53678;39.642;22.430;2023-05-19T08:43:14;25.53;51.41
65478;SHT31;53678;39.642;22.430;2023-05-19T08:45:44;24.26;53.36
65478;SHT31;53678;39.642;22.430;2023-05-19T08:48:13;23.50;54.73
65478;SHT31;53678;39.642;22.430;2023-05-19T08:50:45;23.88;54.71
65478;SHT31;53678;39.642;22.430;2023-05-19T08:53:20;23.75;54.44
65478;SHT31;53678;39.642;22.430;2023-05-19T08:55:57;23.51;55.47
65478;SHT31;53678;39.642;22.430;2023-05-19T08:58:26;23.53;55.33
65478;SHT31;53678;39.642;22.430;2023-05-19T09:00:52;23.28;55.41
65478;SHT31;53678;39.642;22.430;2023-05-19T09:03:20;23.41;54.94
65478;SHT31;53678;39.642;22.430;2023-05-19T09:05:47;23.48;54.39
65478;SHT31;53678;39.642;22.430;2023-05-19T09:08:13;23.27;54.47
65478;SHT31;53678;39.642;22.430;2023-05-19T09:10:39;23.92;53.32
65478;SHT31;53678;39.642;22.430;2023-05-19T09:13:05;24.36;52.03
65478;SHT31;53678;39.642;22.430;2023-05-19T09:15:31;24.56;51.38
65478;SHT31;53678;39.642;22.430;2023-05-19T09:18:05;24.63;51.14
65478;SHT31;53678;39.642;22.430;2023-05-19T09:20:35;24.44;52.16
65478;SHT31;53678;39.642;22.430;2023-05-19T09:23:04;24.40;52.64
65478;SHT31;53678;39.642;22.430;2023-05-19T09:25:30;24.71;52.07
65478;SHT31;53678;39.642;22.430;2023-05-19T09:27:56;25.07;51.62
65478;SHT31;53678;39.642;22.430;2023-05-19T09:30:23;25.08;51.72
65478;SHT31;53678;39.642;22.430;2023-05-19T09:32:50;24.82;51.96
65478;SHT31;53678;39.642;22.430;2023-05-19T09:35:16;24.43;52.78
65478;SHT31;53678;39.642;22.430;2023-05-19T09:37:42;24.65;51.55
65478;SHT31;53678;39.642;22.430;2023-05-19T09:40:08;25.01;51.66
65478;SHT31;53678;39.642;22.430;2023-05-19T09:42:39;25.26;51.76
65478;SHT31;53678;39.642;22.430;2023-05-19T09:45:06;25.36;51.24
65478;SHT31;53678;39.642;22.430;2023-05-19T09:47:35;25.11;51.13
65478;SHT31;53678;39.642;22.430;2023-05-19T09:50:06;25.43;50.99
65478;SHT31;53678;39.642;22.430;2023-05-19T09:52:35;25.59;50.80
65478;SHT31;53678;39.642;22.430;2023-05-19T09:55:02;25.53;50.56
65478;SHT31;53678;39.642;22.430;2023-05-19T09:57:33;24.65;52.36
65478;SHT31;53678;39.642;22.430;2023-05-19T10:00:02;23.71;54.09
65478;SHT31;53678;39.642;22.430;2023-05-19T10:02:34;23.20;54.79
65478;SHT31;53678;39.642;22.430;2023-05-19T10:05:01;23.53;54.18
65478;SHT31;53678;39.642;22.430;2023-05-19T10:07:28;23.62;54.12
65478;SHT31;53678;39.642;22.430;2023-05-19T10:09:55;23.66;53.86
65478;SHT31;53678;39.642;22.430;2023-05-19T10:12:24;24.22;52.89
65478;SHT31;53678;39.642;22.430;2023-05-19T10:14:54;24.16;52.73
65478;SHT31;53678;39.642;22.430;2023-05-19T10:17:21;24.68;52.57
65478;SHT31;53678;39.642;22.430;2023-05-19T10:19:48;24.67;52.74
65478;SHT31;53678;39.642;22.430;2023-05-19T10:22:16;23.71;54.54
65478;SHT31;53678;39.642;22.430;2023-05-19T10:24:42;23.57;55.19
65478;SHT31;53678;39.642;22.430;2023-05-19T10:27:11;23.82;55.16
65478;SHT31;53678;39.642;22.430;2023-05-19T10:29:42;23.74;53.88
65478;SHT31;53678;39.642;22.430;2023-05-19T10:32:15;23.40;55.29
65478;SHT31;53678;39.642;22.430;2023-05-19T10:35:14;23.28;54.51
65478;SHT31;53678;39.642;22.430;2023-05-19T10:41:21;22.73;56.90
65478;SHT31;53678;39.642;22.430;2023-05-19T10:44:06;22.99;55.64
65478;SHT31;53678;39.642;22.430;2023-05-19T10:46:33;23.17;55.50
65478;SHT31;53678;39.642;22.430;2023-05-19T10:48:59;23.26;54.69
65478;SHT31;53678;39.642;22.430;2023-05-19T10:51:32;23.23;54.65
65478;SHT31;53678;39.642;22.430;2023-05-19T10:54:06;23.23;54.38
65478;SHT31;53678;39.642;22.430;2023-05-19T10:56:37;23.59;53.74
65478;SHT31;53678;39.642;22.430;2023-05-19T10:59:06;23.99;52.30
65478;SHT31;53678;39.642;22.430;2023-05-19T11:01:33;24.46;51.01
65478;SHT31;53678;39.642;22.430;2023-05-19T11:04:07;24.82;49.96
65478;SHT31;53678;39.642;22.430;2023-05-19T11:06:38;25.07;49.57
65478;SHT31;53678;39.642;22.430;2023-05-19T11:09:13;25.14;49.62
65478;SHT31;53678;39.642;22.430;2023-05-19T11:14:16;24.72;50.57
65478;SHT31;53678;39.642;22.430;2023-05-19T11:16:46;24.74;50.60
65478;SHT31;53678;39.642;22.430;2023-05-19T11:21:57;24.30;52.81
65478;SHT31;53678;39.642;22.430;2023-05-19T11:24:33;24.29;53.66
65478;SHT31;53678;39.642;22.430;2023-05-19T11:29:52;24.39;50.98
65478;SHT31;53678;39.642;22.430;2023-05-19T11:32:25;24.36;50.97
65478;SHT31;53678;39.642;22.430;2023-05-19T11:34:51;24.71;49.71
65478;SHT31;53678;39.642;22.430;2023-05-19T11:37:17;25.35;48.49
65478;SHT31;53678;39.642;22.430;2023-05-19T11:39:44;25.38;47.16
65478;SHT31;53678;39.642;22.430;2023-05-19T11:42:10;25.56;47.90
65478;SHT31;53678;39.642;22.430;2023-05-19T11:44:36;25.45;47.47
65478;SHT31;53678;39.642;22.430;2023-05-19T11:47:04;25.29;47.98
65478;SHT31;53678;39.642;22.430;2023-05-19T11:49:30;24.88;46.83
65478;SHT31;53678;39.642;22.430;2023-05-19T11:51:56;24.65;47.26
65478;SHT31;53678;39.642;22.430;2023-05-19T11:54:28;24.94;46.69
65478;SHT31;53678;39.642;22.430;2023-05-19T11:56:55;25.28;45.79
65478;SHT31;53678;39.642;22.430;2023-05-19T11:59:30;24.96;45.41
65478;SHT31;53678;39.642;22.430;2023-05-19T12:01:59;25.43;44.70
65478;SHT31;53678;39.642;22.430;2023-05-19T12:04:25;25.43;43.36
65478;SHT31;53678;39.642;22.430;2023-05-19T12:06:51;24.24;44.90
65478;SHT31;53678;39.642;22.430;2023-05-19T12:09:18;24.81;44.60
65478;SHT31;53678;39.642;22.430;2023-05-19T12:11:44;25.33;43.46
65478;SHT31;53678;39.642;22.430;2023-05-19T12:14:10;25.59;43.17
65478;SHT31;53678;39.642;22.430;2023-05-19T12:16:36;25.63;45.62
65478;SHT31;53678;39.642;22.430;2023-05-19T12:19:05;25.49;44.42
65478;SHT31;53678;39.642;22.430;2023-05-19T12:21:31;24.96;44.85
65478;SHT31;53678;39.642;22.430;2023-05-19T12:23:58;25.38;44.15
65478;SHT31;53678;39.642;22.430;2023-05-19T12:26:24;24.68;44.04
65478;SHT31;53678;39.642;22.430;2023-05-19T12:28:50;24.78;43.91
65478;SHT31;53678;39.642;22.430;2023-05-19T12:31:17;24.61;44.12
65478;SHT31;53678;39.642;22.430;2023-05-19T12:33:44;24.39;44.48
65478;SHT31;53678;39.642;22.430;2023-05-19T12:36:12;25.01;43.93
65478;SHT31;53678;39.642;22.430;2023-05-19T12:38:39;25.21;43.65
65478;SHT31;53678;39.642;22.430;2023-05-19T12:41:10;25.35;42.71
65478;SHT31;53678;39.642;22.430;2023-05-19T12:43:37;24.77;44.15
65478;SHT31;53678;39.642;22.430;2023-05-19T12:46:12;24.56;44.52
65478;SHT31;53678;39.642;22.430;2023-05-19T12:48:42;24.74;44.86
65478;SHT31;53678;39.642;22.430;2023-05-19T12:51:08;24.78;44.70
65478;SHT31;53678;39.642;22.430;2023-05-19T12:53:36;24.75;44.04
65478;SHT31;53678;39.642;22.430;2023-05-19T12:56:12;24.91;43.29
65478;SHT31;53678;39.642;22.430;2023-05-19T12:58:42;25.07;43.27
65478;SHT31;53678;39.642;22.430;2023-05-19T13:01:15;24.74;42.93
65478;SHT31;53678;39.642;22.430;2023-05-19T13:03:41;24.43;43.13
65478;SHT31;53678;39.642;22.430;2023-05-19T13:06:07;24.61;42.72
65478;SHT31;53678;39.642;22.430;2023-05-19T13:08:35;24.57;42.52
65478;SHT31;53678;39.642;22.430;2023-05-19T13:11:01;24.85;42.57
65478;SHT31;53678;39.642;22.430;2023-05-19T13:13:27;24.84;42.97
65478;SHT31;53678;39.642;22.430;2023-05-19T13:15:53;24.81;44.60
65478;SHT31;53678;39.642;22.430;2023-05-19T13:18:19;24.96;44.58
65478;SHT31;53678;39.642;22.430;2023-05-19T13:20:45;24.94;45.52
65478;SHT31;53678;39.642;22.430;2023-05-19T13:23:12;24.84;45.96
65478;SHT31;53678;39.642;22.430;2023-05-19T13:25:39;24.70;46.58
65478;SHT31;53678;39.642;22.430;2023-05-19T13:28:05;24.63;47.15
65478;SHT31;53678;39.642;22.430;2023-05-19T13:30:32;24.77;47.30
65478;SHT31;53678;39.642;22.430;2023-05-19T13:32:59;24.70;47.29
65478;SHT31;53678;39.642;22.430;2023-05-19T13:35:25;24.65;46.97
65478;SHT31;53678;39.642;22.430;2023-05-19T13:37:50;24.72;47.43
65478;SHT31;53678;39.642;22.430;2023-05-19T13:40:16;24.75;48.18
65478;SHT31;53678;39.642;22.430;2023-05-19T13:42:43;24.77;48.34
65478;SHT31;53678;39.642;22.430;2023-05-19T13:45:10;24.50;49.12
65478;SHT31;53678;39.642;22.430;2023-05-19T13:47:37;24.65;48.69
65478;SHT31;53678;39.642;22.430;2023-05-19T13:50:03;24.61;47.00
65478;SHT31;53678;39.642;22.430;2023-05-19T13:52:29;24.72;46.40
65478;SHT31;53678;39.642;22.430;2023-05-19T13:54:57;24.77;46.23
65478;SHT31;53678;39.642;22.430;2023-05-19T13:57:23;24.61;46.25
65478;SHT31;53678;39.642;22.430;2023-05-19T13:59:51;24.75;46.30
65478;SHT31;53678;39.642;22.430;2023-05-19T14:02:17;24.90;46.41
65478;SHT31;53678;39.642;22.430;2023-05-19T14:04:43;24.95;46.41
65478;SHT31;53678;39.642;22.430;2023-05-19T14:07:09;24.67;46.53
65478;SHT31;53678;39.642;22.430;2023-05-19T14:09:35;24.81;45.90
65478;SHT31;53678;39.642;22.430;2023-05-19T14:12:01;24.72;45.87
65478;SHT31;53678;39.642;22.430;2023-05-19T14:14:27;24.96;45.20
65478;SHT31;53678;39.642;22.430;2023-05-19T14:16:53;25.11;45.49
65478;SHT31;53678;39.642;22.430;2023-05-19T14:19:19;24.57;45.21
65478;SHT31;53678;39.642;22.430;2023-05-19T14:21:45;24.26;45.48
65478;SHT31;53678;39.642;22.430;2023-05-19T14:24:11;24.19;45.55
65478;SHT31;53678;39.642;22.430;2023-05-19T14:26:36;24.26;46.16
65478;SHT31;53678;39.642;22.430;2023-05-19T14:29:02;24.30;46.35
65478;SHT31;53678;39.642;22.430;2023-05-19T14:31:28;24.34;47.67
65478;SHT31;53678;39.642;22.430;2023-05-19T14:33:54;24.59;47.74
65478;SHT31;53678;39.642;22.430;2023-05-19T14:36:20;24.63;47.48
65478;SHT31;53678;39.642;22.430;2023-05-19T14:38:47;24.56;46.91
65478;SHT31;53678;39.642;22.430;2023-05-19T14:41:13;24.74;47.37
65478;SHT31;53678;39.642;22.430;2023-05-19T14:43:39;24.77;46.93
65478;SHT31;53678;39.642;22.430;2023-05-19T14:46:06;24.98;46.36
65478;SHT31;53678;39.642;22.430;2023-05-19T14:48:32;24.84;46.78
65478;SHT31;53678;39.642;22.430;2023-05-19T14:50:58;24.98;46.19
65478;SHT31;53678;39.642;22.430;2023-05-19T14:53:24;24.50;45.83
65478;SHT31;53678;39.642;22.430;2023-05-19T14:55:49;24.54;45.95
65478;SHT31;53678;39.642;22.430;2023-05-19T14:58:15;24.65;46.34
65478;SHT31;53678;39.642;22.430;2023-05-19T15:00:42;24.57;46.57
65478;SHT31;53678;39.642;22.430;2023-05-19T15:03:08;24.75;46.24
65478;SHT31;53678;39.642;22.430;2023-05-19T15:05:36;24.77;45.49
65478;SHT31;53678;39.642;22.430;2023-05-19T15:08:02;24.84;46.09
65478;SHT31;53678;39.642;22.430;2023-05-19T15:10:28;24.57;45.85
65478;SHT31;53678;39.642;22.430;2023-05-19T15:12:54;24.39;46.21
65478;SHT31;53678;39.642;22.430;2023-05-19T15:15:22;24.36;46.34
65478;SHT31;53678;39.642;22.430;2023-05-19T15:17:48;24.49;45.89
65478;SHT31;53678;39.642;22.430;2023-05-19T15:20:13;24.33;46.12
65478;SHT31;53678;39.642;22.430;2023-05-19T15:22:41;24.50;45.83
65478;SHT31;53678;39.642;22.430;2023-05-19T15:25:08;24.61;45.90
65478;SHT31;53678;39.642;22.430;2023-05-19T15:27:34;24.81;45.67
65478;SHT31;53678;39.642;22.430;2023-05-19T15:30:04;24.82;45.36
65478;SHT31;53678;39.642;22.430;2023-05-19T15:32:30;24.91;45.31
65478;SHT31;53678;39.642;22.430;2023-05-19T15:34:56;24.87;45.70
65478;SHT31;53678;39.642;22.430;2023-05-19T15:37:22;24.43;46.05
65478;SHT31;53678;39.642;22.430;2023-05-19T15:39:48;24.57;45.89
65478;SHT31;53678;39.642;22.430;2023-05-19T15:42:14;24.68;46.15
65478;SHT31;53678;39.642;22.430;2023-05-19T15:44:40;24.70;45.92
65478;SHT31;53678;39.642;22.430;2023-05-19T15:47:06;24.74;46.04